createdAt,value
2019-04-14T00:02:01.020Z,12.58
2019-04-14T00:05:33.731Z,13.57
2019-04-14T00:09:12.559Z,11.93
2019-04-14T00:12:42.718Z,11.11
2019-04-14T00:16:14.115Z,12.38
2019-04-14T00:19:45.522Z,14.28
2019-04-14T00:23:15.849Z,12.89
2019-04-14T00:26:46.704Z,12.59
2019-04-14T00:30:18.775Z,18.07
2019-04-14T00:33:49.887Z,14.75
2019-04-14T00:37:29.457Z,16.34
2019-04-14T00:41:05.287Z,10.65
2019-04-14T00:44:54.161Z,9.39
2019-04-14T00:48:27.570Z,8.74
2019-04-14T00:51:59.191Z,10.3
2019-04-14T00:55:29.414Z,8.04
2019-04-14T00:59:00.580Z,12.56
2019-04-14T01:00:18.637Z,8.3
2019-04-14T01:03:50.474Z,9.25
2019-04-14T01:07:21.625Z,9.54
2019-04-14T01:10:52.001Z,5.47
2019-04-14T01:14:23.131Z,7.84
2019-04-14T01:17:53.458Z,6.71
2019-04-14T01:21:24.238Z,6.01
2019-04-14T01:24:55.308Z,8.05
2019-04-14T01:28:26.483Z,8.53
2019-04-14T01:31:57.841Z,6
2019-04-14T01:35:29.169Z,10.35
2019-04-14T01:39:00.364Z,8.9
2019-04-14T01:42:31.056Z,7.91
2019-04-14T01:46:09.586Z,8.68
2019-04-14T01:49:46.616Z,6.92
2019-04-14T01:53:27.157Z,7.75
2019-04-14T01:57:11.228Z,8.24
2019-04-14T02:01:06.500Z,7.81
2019-04-14T02:04:37.717Z,7.19
2019-04-14T02:08:09.075Z,7.4
2019-04-14T02:11:39.884Z,8.26
2019-04-14T02:15:11.216Z,10.34
2019-04-14T02:18:42.628Z,8.21
2019-04-14T02:22:13.828Z,8.09
2019-04-14T02:25:45.050Z,7.03
2019-04-14T02:29:15.168Z,8.33
2019-04-14T02:33:20.191Z,7.44
2019-04-14T02:37:34.562Z,9.31
2019-04-14T02:42:06.792Z,7.78
2019-04-14T02:46:23.705Z,7.9
2019-04-14T02:50:36.955Z,7.95
2019-04-14T02:54:51.923Z,7.03
2019-04-14T02:58:58.348Z,6.95
2019-04-14T03:00:41.771Z,10.55
2019-04-14T03:04:57.037Z,7.24
2019-04-14T03:09:08.001Z,5.42
2019-04-14T03:20:59.057Z,5.84
2019-04-14T03:25:30.151Z,4.34
2019-04-14T03:29:37.181Z,5.26
2019-04-14T03:34:18.528Z,5.45
2019-04-14T03:38:37.005Z,4.96
2019-04-14T03:43:06.999Z,6.49
2019-04-14T03:47:21.776Z,4.08
2019-04-14T03:55:11.367Z,8.4
2019-04-14T03:58:51.135Z,6.96
2019-04-14T04:02:22.530Z,5.03
2019-04-14T04:05:52.823Z,7.89
2019-04-14T04:09:28.271Z,5.32
2019-04-14T04:12:59.527Z,5.38
2019-04-14T04:16:39.725Z,4.24
2019-04-14T04:22:41.321Z,6.45
2019-04-14T04:26:17.489Z,6.38
2019-04-14T04:29:57.021Z,5.64
2019-04-14T04:34:40.635Z,4.33
2019-04-14T04:38:16.619Z,7.94
2019-04-14T04:41:47.267Z,5.12
2019-04-14T04:45:19.154Z,6.17
2019-04-14T04:49:01.963Z,5.59
2019-04-14T04:52:36.587Z,4.88
2019-04-14T04:56:07.899Z,6.94
2019-04-14T04:59:38.791Z,5.54
2019-04-14T05:00:15.819Z,8.55
2019-04-14T05:03:46.910Z,6.8
2019-04-14T05:07:17.231Z,7.85
2019-04-14T05:10:52.497Z,8.35
2019-04-14T05:14:31.176Z,1.6
2019-04-14T05:18:01.285Z,7.21
2019-04-14T05:21:32.131Z,7.94
2019-04-14T05:25:03.602Z,6.95
2019-04-14T05:28:33.839Z,5.83
2019-04-14T05:32:04.470Z,9.09
2019-04-14T05:35:35.743Z,6.51
2019-04-14T05:39:06.816Z,8.38
2019-04-14T05:42:36.932Z,5.56
2019-04-14T05:46:07.965Z,6.69
2019-04-14T05:49:42.474Z,6.64
2019-04-14T05:53:17.496Z,6.5
2019-04-14T05:56:47.740Z,6.46
2019-04-14T06:00:19.166Z,4.53
2019-04-14T06:03:49.656Z,6.19
2019-04-14T06:07:19.714Z,6.39
2019-04-14T06:10:49.904Z,3.98
2019-04-14T06:14:19.944Z,8.57
2019-04-14T06:17:50.056Z,6.55
2019-04-14T06:21:20.110Z,9.46
2019-04-14T06:24:50.118Z,6.05
2019-04-14T06:28:20.103Z,8.68
2019-04-14T06:31:59.561Z,8.29
2019-04-14T06:35:56.973Z,6.79
2019-04-14T06:39:29.729Z,7.58
2019-04-14T06:42:59.789Z,4.8
2019-04-14T06:46:30.056Z,7.4
2019-04-14T06:50:00.065Z,6.28
2019-04-14T06:53:30.101Z,10.14
2019-04-14T06:57:00.200Z,5.46
2019-04-14T07:00:16.210Z,5.04
2019-04-14T07:03:46.327Z,7.62
2019-04-14T07:07:16.382Z,2.71
2019-04-14T07:10:46.433Z,4.15
2019-04-14T07:14:16.591Z,4.66
2019-04-14T07:17:46.619Z,3.04
2019-04-14T07:21:16.726Z,3.75
2019-04-14T07:24:46.746Z,3.09
2019-04-14T07:28:16.781Z,4.5
2019-04-14T07:32:30.722Z,5.45
2019-04-14T07:37:34.940Z,6.68
2019-04-14T07:41:44.174Z,7.05
2019-04-14T07:45:19.993Z,9.93
2019-04-14T07:48:58.275Z,4.25
2019-04-14T07:53:14.461Z,9.38
2019-04-14T07:57:26.950Z,6.69
2019-04-14T08:01:01.913Z,3.11
2019-04-14T08:04:34.503Z,5
2019-04-14T08:08:04.634Z,4.33
2019-04-14T08:11:34.799Z,4.65
2019-04-14T08:15:05.609Z,2.9
2019-04-14T08:18:35.718Z,3.46
2019-04-14T08:22:05.807Z,2.4
2019-04-14T08:25:35.863Z,3.54
2019-04-14T08:29:05.910Z,3.45
2019-04-14T08:32:36.054Z,4.24
2019-04-14T08:36:06.199Z,3.67
2019-04-14T08:39:36.268Z,2.84
2019-04-14T08:43:45.395Z,3.38
2019-04-14T08:52:12.146Z,1.51
2019-04-14T08:55:53.797Z,2.76
2019-04-14T08:59:32.666Z,3.05
2019-04-14T09:00:21.775Z,4.28
2019-04-14T09:06:16.619Z,2.22
2019-04-14T09:09:50.781Z,3.27
2019-04-14T09:13:20.888Z,3.05
2019-04-14T09:16:51.004Z,4.43
2019-04-14T09:20:21.075Z,1.59
2019-04-14T09:23:51.105Z,4.11
2019-04-14T09:27:21.217Z,3.74
2019-04-14T09:30:51.188Z,3.85
2019-04-14T09:34:21.287Z,4.19
2019-04-14T09:37:51.334Z,6.57
2019-04-14T09:41:21.433Z,5.76
2019-04-14T09:44:51.520Z,3.35
2019-04-14T09:48:21.508Z,3.54
2019-04-14T09:51:51.546Z,5.36
2019-04-14T09:55:23.476Z,5.68
2019-04-14T09:58:53.835Z,4.56
2019-04-14T10:02:23.870Z,3.55
2019-04-14T10:05:53.919Z,3.91
2019-04-14T10:09:24.055Z,2.3
2019-04-14T10:12:54.144Z,4.65
2019-04-14T10:16:24.222Z,5.1
2019-04-14T10:19:54.313Z,3.41
2019-04-14T10:23:24.382Z,3.94
2019-04-14T10:26:54.476Z,5.06
2019-04-14T10:30:24.585Z,1.35
2019-04-14T10:33:54.543Z,3.95
2019-04-14T10:37:24.669Z,3.62
2019-04-14T10:40:54.686Z,5.12
2019-04-14T10:44:24.915Z,4.49
2019-04-14T10:47:55.033Z,5.29
2019-04-14T10:51:30.200Z,1.78
2019-04-14T10:55:01.660Z,2.55
2019-04-14T10:58:32.711Z,4.29
2019-04-14T11:00:17.642Z,7.45
2019-04-14T11:03:47.656Z,3.42
2019-04-14T11:07:22.372Z,4.79
2019-04-14T11:10:52.413Z,4.88
2019-04-14T11:14:22.498Z,5.9
2019-04-14T11:17:52.659Z,3.44
2019-04-14T11:21:22.700Z,3.64
2019-04-14T11:24:52.733Z,5.84
2019-04-14T11:28:22.863Z,5.08
2019-04-14T11:32:04.039Z,3.86
2019-04-14T11:35:42.870Z,1.4
2019-04-14T11:39:14.088Z,3.34
2019-04-14T11:42:52.299Z,2.26
2019-04-14T11:46:22.900Z,2.73
2019-04-14T11:49:52.892Z,3.46
2019-04-14T11:53:23.057Z,3.1
2019-04-14T11:56:53.143Z,3.38
2019-04-14T12:00:50.227Z,5.35
2019-04-14T12:04:28.365Z,2.01
2019-04-14T12:08:07.219Z,3.66
2019-04-14T12:11:37.319Z,1.62
2019-04-14T12:15:07.726Z,4.73
2019-04-14T12:18:37.885Z,5.95
2019-04-14T12:22:08.831Z,3.88
2019-04-14T12:25:38.991Z,3.62
2019-04-14T12:29:09.740Z,3.86
2019-04-14T12:32:40.287Z,4.17
2019-04-14T12:36:11.256Z,4.43
2019-04-14T12:39:41.345Z,4.53
2019-04-14T12:43:22.872Z,3.3
2019-04-14T12:47:02.390Z,5.06
2019-04-14T12:50:35.788Z,3.99
2019-04-14T12:54:05.966Z,5.69
2019-04-14T12:57:45.457Z,4.09
2019-04-14T13:00:22.086Z,6.2
2019-04-14T13:03:53.161Z,7.65
2019-04-14T13:07:23.317Z,6.9
2019-04-14T13:10:53.559Z,1.62
2019-04-14T13:14:23.544Z,8.54
2019-04-14T13:17:53.659Z,9.14
2019-04-14T13:21:23.710Z,7.54
2019-04-14T13:24:53.850Z,7.57
2019-04-14T13:28:23.927Z,2.45
2019-04-14T13:31:54.011Z,8.32
2019-04-14T13:35:24.035Z,5.3
2019-04-14T13:38:54.109Z,7.06
2019-04-14T13:42:24.200Z,6.1
2019-04-14T13:45:54.368Z,3.79
2019-04-14T13:49:24.474Z,3.5
2019-04-14T13:52:54.590Z,4.34
2019-04-14T13:56:24.748Z,3.38
2019-04-14T13:59:54.850Z,10.07
2019-04-14T14:03:24.847Z,5.73
2019-04-14T14:06:55.895Z,9.55
2019-04-14T14:10:26.010Z,7.41
2019-04-14T14:14:02.421Z,11.46
2019-04-14T14:19:56.358Z,3.19
2019-04-14T14:23:31.567Z,12.66
2019-04-14T14:27:01.794Z,7.89
2019-04-14T14:30:31.872Z,6.94
2019-04-14T14:34:01.987Z,11.04
2019-04-14T14:37:32.088Z,9.73
2019-04-14T14:41:03.676Z,12.64
2019-04-14T14:44:38.521Z,6.21
2019-04-14T14:49:29.691Z,14.21
2019-04-14T14:53:11.491Z,15.18
2019-04-14T14:56:42.577Z,14.59
2019-04-14T15:00:23.815Z,19.11
2019-04-14T15:03:53.934Z,15.2
2019-04-14T15:07:24.968Z,9.49
2019-04-14T15:10:55.117Z,18.96
2019-04-14T15:14:25.244Z,15.41
2019-04-14T15:17:55.401Z,6.6
2019-04-14T15:21:25.480Z,12.46
2019-04-14T15:24:55.532Z,10.43
2019-04-14T15:28:25.661Z,8.71
2019-04-14T15:31:55.735Z,12.88
2019-04-14T15:35:25.877Z,11.8
2019-04-14T15:38:56.001Z,8.57
2019-04-14T15:42:26.083Z,19.7
2019-04-14T15:45:56.288Z,13.62
2019-04-14T15:49:26.392Z,18.23
2019-04-14T15:52:56.477Z,7.79
2019-04-14T15:56:35.770Z,18.91
2019-04-14T16:00:18.892Z,15.09
2019-04-14T16:03:54.657Z,15.45
2019-04-14T16:07:34.077Z,16.99
2019-04-14T16:13:26.087Z,16.04
2019-04-14T16:20:24.129Z,8.19
2019-04-14T16:23:54.117Z,9.15
2019-04-14T16:27:30.677Z,10.31
2019-04-14T16:33:25.480Z,16.89
2019-04-14T16:36:55.748Z,18.68
2019-04-14T16:40:25.959Z,16.55
2019-04-14T16:43:55.997Z,13.43
2019-04-14T16:47:26.083Z,16.34
2019-04-14T16:50:56.120Z,17.1
2019-04-14T16:54:39.552Z,17.96
2019-04-14T16:58:16.656Z,8.76
2019-04-14T17:00:21.774Z,14.16
2019-04-14T17:03:51.947Z,11.31
2019-04-14T17:07:21.994Z,14.28
2019-04-14T17:10:53.002Z,11.71
2019-04-14T17:14:30.120Z,16.85
2019-04-14T17:20:30.027Z,12.85
2019-04-14T17:24:10.630Z,14.62
2019-04-14T17:27:52.766Z,10.51
2019-04-14T17:31:32.301Z,14.21
2019-04-14T17:38:29.556Z,12.51
2019-04-14T17:42:20.369Z,15.18
2019-04-14T17:46:34.139Z,21.23
2019-04-14T17:50:17.951Z,6.12
2019-04-14T17:53:54.549Z,12.61
2019-04-14T17:57:59.317Z,12.41
2019-04-14T18:01:35.581Z,5.62
2019-04-14T18:05:08.924Z,8.81
2019-04-14T18:09:51.827Z,3.64
2019-04-14T18:13:28.555Z,9.01
2019-04-14T18:19:32.141Z,12.32
2019-04-14T18:23:02.169Z,3.94
2019-04-14T18:26:32.267Z,1.59
2019-04-14T18:30:22.268Z,6.05
2019-04-14T18:37:23.611Z,5.6
2019-04-14T18:41:02.813Z,4.14
2019-04-14T18:44:41.944Z,5.09
2019-04-14T18:48:24.376Z,6.58
2019-04-14T18:51:59.397Z,3.45
2019-04-14T18:56:06.261Z,5.53
2019-04-14T18:59:44.909Z,6.38
2019-04-14T19:00:25.766Z,3.75
2019-04-14T19:03:55.830Z,4.92
2019-04-14T19:07:25.954Z,6.69
2019-04-14T19:11:09.515Z,2.94
2019-04-14T19:14:40.283Z,7.79
2019-04-14T19:18:20.838Z,4.68
2019-04-14T19:21:50.879Z,3.08
2019-04-14T19:25:20.948Z,4.21
2019-04-14T19:28:50.998Z,6.12
2019-04-14T19:32:21.133Z,1.49
2019-04-14T19:35:51.307Z,3.96
2019-04-14T19:39:21.329Z,4
2019-04-14T19:42:51.447Z,4.81
2019-04-14T19:46:21.611Z,4.39
2019-04-14T19:49:51.751Z,6.85
2019-04-14T19:53:21.838Z,7.74
2019-04-14T19:56:51.999Z,1.49
2019-04-14T20:00:22.127Z,8
2019-04-14T20:03:52.114Z,2.69
2019-04-14T20:07:22.152Z,4.59
2019-04-14T20:10:52.223Z,6.97
2019-04-14T20:14:22.219Z,6.57
2019-04-14T20:17:59.566Z,3.9
2019-04-14T20:22:23.634Z,4.92
2019-04-14T20:26:36.989Z,4.35
2019-04-14T20:30:10.663Z,7.54
2019-04-14T20:33:40.779Z,7.11
2019-04-14T20:37:11.015Z,7.69
2019-04-14T20:40:41.043Z,7.68
2019-04-14T20:44:11.132Z,6.22
2019-04-14T20:47:41.280Z,2.24
2019-04-14T20:51:11.390Z,7.58
2019-04-14T20:54:41.439Z,3.98
2019-04-14T20:58:11.507Z,6.67
2019-04-14T21:00:15.852Z,7.07
2019-04-14T21:04:09.860Z,7.27
2019-04-14T21:07:47.945Z,8.36
2019-04-14T21:11:28.858Z,6.45
2019-04-14T21:15:08.250Z,5.06
2019-04-14T21:18:44.118Z,5.2
2019-04-14T21:22:21.049Z,4.41
2019-04-14T21:26:02.629Z,2.75
2019-04-14T21:29:48.216Z,6.1
2019-04-14T21:33:28.450Z,6.2
2019-04-14T21:37:07.848Z,5.21
2019-04-14T21:40:45.627Z,9.14
2019-04-14T21:44:15.834Z,9.56
2019-04-14T21:47:45.905Z,4.99
2019-04-14T21:51:16.056Z,10.91
2019-04-14T21:54:46.215Z,5
2019-04-14T21:58:22.498Z,10.72
2019-04-14T22:03:46.525Z,7.19
2019-04-14T22:07:37.581Z,3.84
2019-04-14T22:11:09.172Z,6.95
2019-04-14T22:14:39.259Z,1.99
2019-04-14T22:18:09.389Z,7.19
2019-04-14T22:21:40.403Z,3.16
2019-04-14T22:25:10.564Z,3.02
2019-04-14T22:28:40.601Z,3.24
2019-04-14T22:32:10.698Z,7.59
2019-04-14T22:35:40.834Z,15.22
2019-04-14T22:39:15.366Z,2.94
2019-04-14T22:42:45.872Z,2.53
2019-04-14T22:46:16.001Z,6.11
2019-04-14T22:49:45.956Z,3.24
2019-04-14T22:53:15.968Z,1.34
2019-04-14T22:56:46.025Z,2.14
2019-04-14T23:00:27.170Z,8.64
2019-04-14T23:04:12.692Z,3.86
2019-04-14T23:07:53.008Z,3.9
2019-04-14T23:11:48.446Z,6.85
2019-04-14T23:17:44.483Z,6.8
2019-04-14T23:21:20.111Z,1.99
2019-04-14T23:24:51.163Z,7.33
2019-04-14T23:28:21.474Z,5.21
2019-04-14T23:31:51.605Z,7.59
2019-04-14T23:35:21.624Z,5.93
2019-04-14T23:38:51.791Z,6.45
2019-04-14T23:42:21.870Z,4.46
2019-04-14T23:45:52.044Z,7.91
2019-04-14T23:49:22.184Z,8.57
2019-04-14T23:52:52.176Z,2.83
2019-04-14T23:56:22.414Z,8.35
2019-04-14T23:59:52.518Z,11.54
